Time;durP1;ratioP1;P1;durP2;ratioP2;P2;SDS_P1;SDS_P2;PMS_P1;PMS_P2;Temp;Humidity;BMP_temperature;BMP_pressure;BME280_temperature;BME280_humidity;BME280_pressure;Samples;Min_cycle;Max_cycle;Signal;HPM_P1;HPM_P2
2022/07/28 00:01:56;;;;;;;;;;;14.70;99.90;;;;;;5032075;28;20210;-75
2022/07/28 00:04:22;;;;;;;;;;;14.70;99.90;;;;;;5024874;28;19953;-74
2022/07/28 00:06:48;;;;;;;;;;;14.70;99.90;;;;;;5028337;28;19913;-75
2022/07/28 00:09:13;;;;;;;;;;;14.70;99.90;;;;;;5031012;28;20008;-74
2022/07/28 00:11:39;;;;;;;;;;;14.70;99.90;;;;;;5042817;28;20244;-75
2022/07/28 00:14:05;;;;;;;;;;;14.70;99.90;;;;;;5031888;28;20217;-74
2022/07/28 00:16:31;;;;;;;;;;;14.70;99.90;;;;;;5031157;28;19940;-75
2022/07/28 00:18:56;;;;;;;;;;;14.70;99.90;;;;;;5032143;28;19921;-75
2022/07/28 00:21:23;;;;;;;;;;;14.70;99.90;;;;;;5033116;28;19909;-74
2022/07/28 00:23:48;;;;;;;;;;;14.60;99.90;;;;;;5030701;28;19918;-75
2022/07/28 00:26:14;;;;;;;;;;;14.60;99.90;;;;;;5030141;28;19958;-74
2022/07/28 00:28:39;;;;;;;;;;;14.60;99.90;;;;;;5033615;28;19924;-74
2022/07/28 00:31:05;;;;;;;;;;;14.60;99.90;;;;;;5035883;28;20316;-75
2022/07/28 00:33:31;;;;;;;;;;;14.60;99.90;;;;;;5036265;28;19913;-75
2022/07/28 00:35:57;;;;;;;;;;;14.60;99.90;;;;;;5036467;28;19917;-74
2022/07/28 00:38:22;;;;;;;;;;;14.60;99.90;;;;;;5037118;28;20236;-74
2022/07/28 00:43:47;;;;;;;;;;;14.50;99.90;;;;;;4988128;28;20196;-74
2022/07/28 00:46:13;;;;;;;;;;;14.50;99.90;;;;;;4993907;28;20325;-74
2022/07/28 00:48:41;;;;;;;;;;;14.50;99.90;;;;;;4995291;28;19957;-74
2022/07/28 00:51:08;;;;;;;;;;;14.50;99.90;;;;;;4991167;28;20248;-74
2022/07/28 00:53:33;;;;;;;;;;;14.50;99.90;;;;;;4993641;28;20325;-74
2022/07/28 00:55:59;;;;;;;;;;;14.50;99.90;;;;;;4993549;28;19918;-75
2022/07/28 00:58:27;;;;;;;;;;;14.50;99.90;;;;;;4994145;28;19947;-75
2022/07/28 01:00:53;;;;;;;;;;;14.50;99.90;;;;;;4993609;28;19929;-74
2022/07/28 01:03:19;;;;;;;;;;;14.40;99.90;;;;;;4993485;28;19913;-75
2022/07/28 01:05:45;;;;;;;;;;;14.40;99.90;;;;;;4991606;28;19924;-75
2022/07/28 01:08:22;;;;;;;;;;;14.30;99.90;;;;;;4992246;28;19914;-75
2022/07/28 01:10:56;;;;;;;;;;;14.30;99.90;;;;;;4993962;28;19920;-75
2022/07/28 01:13:31;;;;;;;;;;;14.20;99.90;;;;;;4990072;28;19925;-75
2022/07/28 01:16:00;;;;;;;;;;;14.20;99.90;;;;;;4993665;28;19941;-74
2022/07/28 01:18:28;;;;;;;;;;;14.10;99.90;;;;;;4999281;28;19913;-74
2022/07/28 01:21:01;;;;;;;;;;;14.10;99.90;;;;;;5052020;28;19916;-75
2022/07/28 01:23:32;;;;;;;;;;;14.10;99.90;;;;;;5032531;28;19944;-75
2022/07/28 01:26:00;;;;;;;;;;;14.10;99.90;;;;;;5037293;28;20007;-75
2022/07/28 01:28:41;;;;;;;;;;;14.00;99.90;;;;;;5047702;28;19913;-75
2022/07/28 01:31:10;;;;;;;;;;;14.00;99.90;;;;;;5030685;28;19925;-74
2022/07/28 01:33:35;;;;;;;;;;;14.00;99.90;;;;;;5037319;28;19921;-74
2022/07/28 01:36:05;;;;;;;;;;;14.00;99.90;;;;;;5033789;28;19978;-75
2022/07/28 01:38:31;;;;;;;;;;;14.00;99.90;;;;;;5034744;28;19917;-75
2022/07/28 01:40:59;;;;;;;;;;;13.90;99.90;;;;;;5046562;28;19916;-74
2022/07/28 01:43:27;;;;;;;;;;;13.90;99.90;;;;;;5038540;28;20365;-74
2022/07/28 01:45:54;;;;;;;;;;;13.80;99.90;;;;;;5034049;28;19945;-74
2022/07/28 01:48:20;;;;;;;;;;;13.80;99.90;;;;;;5033134;28;19920;-75
2022/07/28 01:50:47;;;;;;;;;;;13.80;99.90;;;;;;5033616;28;20016;-74
2022/07/28 01:53:14;;;;;;;;;;;13.70;99.90;;;;;;5043752;28;19925;-74
2022/07/28 01:55:42;;;;;;;;;;;13.70;99.90;;;;;;5032914;28;19974;-74
2022/07/28 01:58:08;;;;;;;;;;;13.70;99.90;;;;;;5032027;28;20061;-75
2022/07/28 02:00:35;;;;;;;;;;;13.60;99.90;;;;;;5034890;28;19917;-75
2022/07/28 02:03:04;;;;;;;;;;;13.60;99.90;;;;;;5042498;28;19912;-74
2022/07/28 02:05:31;;;;;;;;;;;13.60;99.90;;;;;;5033672;28;20371;-74
2022/07/28 02:07:58;;;;;;;;;;;13.60;99.90;;;;;;5045290;28;19909;-75
2022/07/28 02:10:24;;;;;;;;;;;13.60;99.90;;;;;;5035072;28;19920;-74
2022/07/28 02:12:51;;;;;;;;;;;13.50;99.90;;;;;;5055750;28;20019;-74
2022/07/28 02:15:18;;;;;;;;;;;13.50;99.90;;;;;;5043234;28;19951;-74
2022/07/28 02:17:44;;;;;;;;;;;13.40;99.90;;;;;;5037418;28;20421;-74
2022/07/28 02:20:12;;;;;;;;;;;13.40;99.90;;;;;;5040375;28;19917;-74
2022/07/28 02:22:38;;;;;;;;;;;13.50;99.90;;;;;;5027038;28;19980;-75
2022/07/28 02:25:04;;;;;;;;;;;13.60;99.90;;;;;;5031906;28;19963;-74
2022/07/28 02:27:32;;;;;;;;;;;13.60;99.90;;;;;;5032980;28;19952;-74
2022/07/28 02:30:17;;;;;;;;;;;13.60;99.90;;;;;;5033043;28;19952;-74
2022/07/28 02:32:53;;;;;;;;;;;13.60;99.90;;;;;;5030270;28;19924;-75
2022/07/28 02:35:45;;;;;;;;;;;13.50;99.90;;;;;;5031924;28;19913;-74
2022/07/28 02:38:12;;;;;;;;;;;13.50;99.90;;;;;;5030262;28;20228;-75
2022/07/28 02:40:39;;;;;;;;;;;13.60;99.90;;;;;;5035049;28;20255;-75
2022/07/28 02:43:07;;;;;;;;;;;13.50;99.90;;;;;;5033280;28;19921;-74
2022/07/28 02:45:34;;;;;;;;;;;13.50;99.90;;;;;;5032259;28;19917;-74
2022/07/28 02:48:02;;;;;;;;;;;13.50;99.90;;;;;;5034355;28;20312;-75
2022/07/28 02:50:28;;;;;;;;;;;13.50;99.90;;;;;;5033166;28;20266;-74
2022/07/28 02:53:03;;;;;;;;;;;13.50;99.90;;;;;;5033125;28;19924;-74
2022/07/28 02:55:29;;;;;;;;;;;13.50;99.90;;;;;;5030244;28;19913;-74
2022/07/28 02:57:56;;;;;;;;;;;13.50;99.90;;;;;;5032246;28;19928;-74
2022/07/28 03:00:22;;;;;;;;;;;13.50;99.90;;;;;;5034703;28;20387;-74
2022/07/28 03:02:48;;;;;;;;;;;13.50;99.90;;;;;;5034650;28;20019;-74
2022/07/28 03:05:14;;;;;;;;;;;13.50;99.90;;;;;;5027164;28;19913;-75
2022/07/28 03:07:40;;;;;;;;;;;13.40;99.90;;;;;;5041337;28;19913;-75
2022/07/28 03:10:06;;;;;;;;;;;13.50;99.90;;;;;;5034002;28;19917;-75
2022/07/28 03:12:31;;;;;;;;;;;13.50;99.90;;;;;;5040073;28;20008;-75
2022/07/28 03:14:57;;;;;;;;;;;13.50;99.90;;;;;;5039233;28;19968;-75
2022/07/28 03:17:22;;;;;;;;;;;13.40;99.90;;;;;;5032658;28;19935;-75
2022/07/28 03:19:48;;;;;;;;;;;13.40;99.90;;;;;;5041056;28;19912;-75
2022/07/28 03:22:14;;;;;;;;;;;13.30;99.90;;;;;;5038808;28;19917;-75
2022/07/28 03:24:59;;;;;;;;;;;13.30;99.90;;;;;;5033769;28;19913;-74
2022/07/28 03:27:27;;;;;;;;;;;13.30;99.90;;;;;;5031330;28;19924;-75
2022/07/28 03:29:54;;;;;;;;;;;13.30;99.90;;;;;;5032585;28;19913;-74
2022/07/28 03:32:21;;;;;;;;;;;13.30;99.90;;;;;;5044938;28;19931;-74
2022/07/28 03:34:47;;;;;;;;;;;13.40;99.90;;;;;;5045702;28;20016;-74
2022/07/28 03:37:15;;;;;;;;;;;13.30;99.90;;;;;;5031335;28;20283;-74
2022/07/28 03:39:46;;;;;;;;;;;13.30;99.90;;;;;;5035651;28;19923;-74
2022/07/28 03:42:17;;;;;;;;;;;13.30;99.90;;;;;;5035051;28;20004;-74
2022/07/28 03:44:44;;;;;;;;;;;13.30;99.90;;;;;;5026142;28;19921;-80
2022/07/28 03:47:10;;;;;;;;;;;13.20;99.90;;;;;;5029847;28;19913;-75
2022/07/28 03:49:36;;;;;;;;;;;13.10;99.90;;;;;;5025855;28;19921;-74
2022/07/28 03:52:01;;;;;;;;;;;13.10;99.90;;;;;;5030629;28;20263;-74
2022/07/28 03:54:27;;;;;;;;;;;13.00;99.90;;;;;;5033730;28;19917;-74
2022/07/28 03:56:52;;;;;;;;;;;12.90;99.90;;;;;;5033747;28;20215;-74
2022/07/28 03:59:19;;;;;;;;;;;12.90;99.90;;;;;;5028748;28;19917;-74
2022/07/28 04:01:45;;;;;;;;;;;13.00;99.90;;;;;;5035559;28;19963;-75
2022/07/28 04:04:10;;;;;;;;;;;13.00;99.90;;;;;;5034156;28;19921;-75
2022/07/28 04:06:36;;;;;;;;;;;13.00;99.90;;;;;;5038571;28;19949;-75
2022/07/28 04:09:01;;;;;;;;;;;13.10;99.90;;;;;;5032739;28;19920;-74
2022/07/28 04:11:27;;;;;;;;;;;13.10;99.90;;;;;;5033901;28;20213;-78
2022/07/28 04:13:54;;;;;;;;;;;13.10;99.90;;;;;;5036094;28;19918;-74
2022/07/28 04:16:19;;;;;;;;;;;13.30;99.90;;;;;;5037113;28;20236;-74
2022/07/28 04:18:45;;;;;;;;;;;13.30;99.90;;;;;;5036513;28;19921;-79
2022/07/28 04:21:10;;;;;;;;;;;13.30;99.90;;;;;;5036895;28;19920;-75
2022/07/28 04:23:36;;;;;;;;;;;13.30;99.90;;;;;;5036474;28;19916;-74
2022/07/28 04:26:01;;;;;;;;;;;13.30;99.90;;;;;;5034006;28;19913;-74
2022/07/28 04:28:27;;;;;;;;;;;13.40;99.90;;;;;;5030379;28;20228;-75
2022/07/28 04:30:52;;;;;;;;;;;13.40;99.90;;;;;;5035439;28;19913;-75
2022/07/28 04:33:18;;;;;;;;;;;13.40;99.90;;;;;;5038228;28;20296;-74
2022/07/28 04:35:45;;;;;;;;;;;13.40;99.90;;;;;;5035305;28;19910;-82
2022/07/28 04:38:13;;;;;;;;;;;13.50;99.90;;;;;;5037667;28;20228;-75
2022/07/28 04:40:39;;;;;;;;;;;13.50;99.90;;;;;;5038870;28;19920;-74
2022/07/28 04:43:06;;;;;;;;;;;13.50;99.90;;;;;;5036317;28;19913;-81
2022/07/28 04:45:32;;;;;;;;;;;13.50;99.90;;;;;;5036002;28;19913;-81
2022/07/28 04:47:57;;;;;;;;;;;13.60;99.90;;;;;;5035158;28;19967;-73
2022/07/28 04:50:23;;;;;;;;;;;13.60;99.90;;;;;;5036910;28;19917;-81
2022/07/28 04:52:48;;;;;;;;;;;13.60;99.90;;;;;;5048154;28;19921;-81
2022/07/28 04:55:14;;;;;;;;;;;13.70;99.90;;;;;;5037172;28;19919;-80
2022/07/28 04:57:40;;;;;;;;;;;13.70;99.90;;;;;;5033092;28;19948;-81
2022/07/28 05:00:11;;;;;;;;;;;13.70;99.90;;;;;;5036826;28;19948;-81
2022/07/28 05:02:37;;;;;;;;;;;13.70;99.90;;;;;;5034974;28;20133;-74
2022/07/28 05:05:02;;;;;;;;;;;13.80;99.90;;;;;;5035592;28;20259;-74
2022/07/28 05:07:28;;;;;;;;;;;13.80;99.90;;;;;;5039560;28;19948;-74
2022/07/28 05:09:53;;;;;;;;;;;13.80;99.90;;;;;;5033783;28;19913;-74
2022/07/28 05:12:19;;;;;;;;;;;13.90;99.90;;;;;;5048618;28;19929;-75
2022/07/28 05:14:45;;;;;;;;;;;13.90;99.90;;;;;;5043873;28;19921;-74
2022/07/28 05:17:10;;;;;;;;;;;14.00;99.90;;;;;;5032681;28;20367;-83
2022/07/28 05:19:36;;;;;;;;;;;14.10;99.90;;;;;;5035291;28;20300;-74
2022/07/28 05:22:01;;;;;;;;;;;14.20;99.90;;;;;;5036270;28;19913;-74
2022/07/28 05:24:27;;;;;;;;;;;14.20;99.90;;;;;;5032085;28;20008;-74
2022/07/28 05:26:52;;;;;;;;;;;14.30;99.90;;;;;;5033377;28;20324;-81
2022/07/28 05:29:18;;;;;;;;;;;14.40;99.90;;;;;;5030772;28;19913;-76
2022/07/28 05:31:43;;;;;;;;;;;14.50;99.90;;;;;;5033411;28;19921;-74
2022/07/28 05:34:09;;;;;;;;;;;14.50;99.90;;;;;;5016909;28;19917;-75
2022/07/28 05:36:35;;;;;;;;;;;14.60;99.90;;;;;;5032527;28;19917;-74
2022/07/28 05:39:01;;;;;;;;;;;14.60;99.90;;;;;;5035605;28;19920;-75
2022/07/28 05:41:26;;;;;;;;;;;14.60;99.90;;;;;;5032990;28;20338;-75
2022/07/28 05:43:52;;;;;;;;;;;14.70;99.90;;;;;;5036704;28;19921;-74
2022/07/28 05:46:17;;;;;;;;;;;14.70;99.90;;;;;;5037380;28;20317;-77
2022/07/28 05:48:44;;;;;;;;;;;14.70;99.90;;;;;;5036435;28;19936;-74
2022/07/28 05:51:10;;;;;;;;;;;14.80;99.90;;;;;;5038930;28;20002;-75
2022/07/28 05:53:35;;;;;;;;;;;14.90;99.90;;;;;;5036152;28;19959;-74
2022/07/28 05:56:01;;;;;;;;;;;14.90;99.90;;;;;;5041258;28;19971;-75
2022/07/28 05:58:27;;;;;;;;;;;14.90;99.90;;;;;;5034840;28;19917;-75
2022/07/28 06:00:52;;;;;;;;;;;15.00;99.90;;;;;;5034774;28;19913;-80
2022/07/28 06:03:18;;;;;;;;;;;15.00;99.90;;;;;;5035218;28;19920;-74
2022/07/28 06:05:44;;;;;;;;;;;15.00;99.90;;;;;;5035355;28;19924;-75
2022/07/28 06:08:09;;;;;;;;;;;15.10;99.90;;;;;;5035196;28;19961;-74
2022/07/28 06:13:19;;;;;;;;;;;15.20;99.90;;;;;;5035589;28;19924;-80
2022/07/28 06:15:45;;;;;;;;;;;15.30;99.90;;;;;;5039568;28;20000;-75
2022/07/28 06:18:11;;;;;;;;;;;15.30;99.90;;;;;;5052447;28;19913;-78
2022/07/28 06:20:37;;;;;;;;;;;15.40;99.90;;;;;;5035434;28;19967;-81
2022/07/28 06:23:02;;;;;;;;;;;15.40;99.90;;;;;;5036397;28;19916;-75
2022/07/28 06:25:28;;;;;;;;;;;15.50;99.90;;;;;;5035644;28;20213;-76
2022/07/28 06:27:58;;;;;;;;;;;15.60;99.90;;;;;;5035442;28;19933;-74
2022/07/28 06:30:24;;;;;;;;;;;15.60;99.90;;;;;;5035507;28;20296;-74
2022/07/28 06:32:50;;;;;;;;;;;15.70;99.90;;;;;;5035326;28;19967;-74
2022/07/28 06:35:16;;;;;;;;;;;15.80;99.90;;;;;;5046596;28;19927;-79
2022/07/28 06:37:42;;;;;;;;;;;15.80;99.90;;;;;;5047611;28;20308;-75
2022/07/28 06:40:10;;;;;;;;;;;15.80;99.90;;;;;;5056001;28;19937;-77
2022/07/28 06:42:36;;;;;;;;;;;15.80;99.90;;;;;;5041875;28;19913;-80
2022/07/28 06:45:03;;;;;;;;;;;15.80;99.90;;;;;;5050701;28;19909;-75
2022/07/28 06:47:28;;;;;;;;;;;15.80;99.90;;;;;;5052788;28;19959;-75
2022/07/28 06:49:54;;;;;;;;;;;15.80;99.90;;;;;;5045314;28;20003;-75
2022/07/28 06:52:20;;;;;;;;;;;15.80;99.90;;;;;;5054286;28;19917;-75
2022/07/28 06:54:49;;;;;;;;;;;15.80;99.90;;;;;;5050172;28;19918;-79
2022/07/28 06:57:15;;;;;;;;;;;15.80;99.90;;;;;;5034160;28;19999;-75
2022/07/28 06:59:40;;;;;;;;;;;15.80;99.90;;;;;;5034794;28;20314;-78
2022/07/28 07:02:06;;;;;;;;;;;15.80;99.90;;;;;;5033820;28;20212;-83
2022/07/28 07:04:32;;;;;;;;;;;15.80;99.90;;;;;;5017573;28;19913;-74
2022/07/28 07:06:58;;;;;;;;;;;15.80;99.90;;;;;;5048659;28;19919;-76
2022/07/28 07:09:23;;;;;;;;;;;15.90;99.90;;;;;;5035106;28;20400;-73
2022/07/28 07:11:49;;;;;;;;;;;16.00;99.90;;;;;;5050039;28;19999;-75
2022/07/28 07:14:14;;;;;;;;;;;16.10;99.90;;;;;;5045843;28;19913;-77
2022/07/28 07:16:40;;;;;;;;;;;16.20;99.90;;;;;;5042846;28;19925;-75
2022/07/28 07:19:05;;;;;;;;;;;16.30;99.90;;;;;;5064620;28;20047;-75
2022/07/28 07:21:31;;;;;;;;;;;16.40;99.90;;;;;;5049826;28;19990;-81
2022/07/28 07:23:57;;;;;;;;;;;16.50;99.90;;;;;;5051549;28;20018;-75
2022/07/28 07:26:23;;;;;;;;;;;16.50;99.90;;;;;;5050646;28;19908;-75
2022/07/28 07:28:48;;;;;;;;;;;16.60;99.90;;;;;;5046355;28;20189;-82
2022/07/28 07:31:14;;;;;;;;;;;16.70;99.90;;;;;;5047783;28;19932;-82
2022/07/28 07:33:40;;;;;;;;;;;16.80;99.90;;;;;;5045538;28;20243;-77
2022/07/28 07:36:05;;;;;;;;;;;16.70;99.90;;;;;;5036767;28;19983;-82
2022/07/28 07:38:32;;;;;;;;;;;16.80;99.90;;;;;;5054683;28;19912;-75
2022/07/28 07:40:58;;;;;;;;;;;16.80;99.90;;;;;;5054062;28;19924;-78
2022/07/28 07:43:24;;;;;;;;;;;16.80;99.90;;;;;;5039687;28;19955;-75
2022/07/28 07:45:49;;;;;;;;;;;16.80;99.90;;;;;;5039154;28;19948;-74
2022/07/28 07:48:15;;;;;;;;;;;16.90;99.90;;;;;;5037437;28;19917;-76
2022/07/28 07:50:40;;;;;;;;;;;16.90;99.90;;;;;;5039523;28;20320;-75
2022/07/28 07:53:06;;;;;;;;;;;16.90;99.90;;;;;;5039673;28;20027;-74
2022/07/28 07:55:31;;;;;;;;;;;17.10;99.90;;;;;;5037569;28;20004;-75
2022/07/28 07:57:57;;;;;;;;;;;17.30;99.90;;;;;;5040879;28;20228;-75
2022/07/28 08:00:23;;;;;;;;;;;17.40;99.90;;;;;;5038233;28;19914;-77
2022/07/28 08:02:48;;;;;;;;;;;17.50;99.90;;;;;;5038828;28;20531;-78
2022/07/28 08:05:14;;;;;;;;;;;17.60;99.90;;;;;;5038671;28;19932;-75
2022/07/28 08:07:40;;;;;;;;;;;17.80;99.90;;;;;;5040877;28;19917;-76
2022/07/28 08:10:05;;;;;;;;;;;17.90;99.90;;;;;;5037342;28;19913;-75
2022/07/28 08:12:31;;;;;;;;;;;18.10;99.90;;;;;;5039934;28;19917;-75
2022/07/28 08:14:57;;;;;;;;;;;18.40;99.90;;;;;;5038757;28;19924;-80
2022/07/28 08:17:22;;;;;;;;;;;18.70;99.90;;;;;;5039533;28;19975;-75
2022/07/28 08:19:48;;;;;;;;;;;18.90;99.90;;;;;;5037945;28;19926;-75
2022/07/28 08:22:14;;;;;;;;;;;19.10;99.90;;;;;;5039410;28;19914;-76
2022/07/28 08:24:40;;;;;;;;;;;19.10;99.90;;;;;;5039026;28;19921;-75
2022/07/28 08:27:06;;;;;;;;;;;19.10;99.90;;;;;;5040517;28;19967;-77
2022/07/28 08:29:34;;;;;;;;;;;19.00;99.90;;;;;;5041284;28;20304;-75
2022/07/28 08:32:03;;;;;;;;;;;18.80;99.90;;;;;;5038512;28;20391;-75
2022/07/28 08:34:29;;;;;;;;;;;18.70;99.90;;;;;;5039675;28;19917;-76
2022/07/28 08:36:55;;;;;;;;;;;18.60;99.90;;;;;;5042550;28;19924;-77
2022/07/28 08:39:20;;;;;;;;;;;18.70;99.90;;;;;;5036748;28;19913;-75
2022/07/28 08:41:55;;;;;;;;;;;18.70;99.90;;;;;;5040558;28;19913;-77
2022/07/28 08:44:26;;;;;;;;;;;18.80;99.90;;;;;;5038981;28;20003;-76
2022/07/28 08:46:52;;;;;;;;;;;18.80;99.90;;;;;;5039643;28;19917;-76
2022/07/28 08:49:17;;;;;;;;;;;18.90;99.90;;;;;;5038002;28;20196;-74
2022/07/28 08:51:46;;;;;;;;;;;18.90;99.90;;;;;;5032987;28;20255;-76
2022/07/28 08:54:14;;;;;;;;;;;19.10;99.90;;;;;;5036392;28;19912;-75
2022/07/28 08:56:42;;;;;;;;;;;19.40;99.90;;;;;;5036868;28;20375;-76
2022/07/28 08:59:07;;;;;;;;;;;19.60;99.90;;;;;;5033064;28;20007;-75
2022/07/28 09:01:33;;;;;;;;;;;19.70;99.90;;;;;;5035186;28;20035;-77
2022/07/28 09:03:59;;;;;;;;;;;19.50;99.70;;;;;;5051439;28;19959;-79
2022/07/28 09:06:25;;;;;;;;;;;19.40;99.90;;;;;;5045380;28;20338;-76
2022/07/28 09:08:50;;;;;;;;;;;19.30;99.90;;;;;;5036912;28;19960;-76
2022/07/28 09:11:16;;;;;;;;;;;19.10;99.90;;;;;;5035488;28;19916;-75
2022/07/28 09:13:42;;;;;;;;;;;19.00;99.90;;;;;;5036542;28;20244;-75
2022/07/28 09:16:08;;;;;;;;;;;19.20;99.90;;;;;;5036827;28;19925;-75
2022/07/28 09:18:33;;;;;;;;;;;19.40;99.70;;;;;;5036114;28;19944;-76
2022/07/28 09:20:59;;;;;;;;;;;19.60;99.90;;;;;;5036554;28;20296;-75
2022/07/28 09:23:40;;;;;;;;;;;19.50;99.90;;;;;;5033615;28;19917;-87
2022/07/28 09:26:06;;;;;;;;;;;19.80;99.90;;;;;;5036713;28;19956;-74
2022/07/28 09:28:44;;;;;;;;;;;20.20;99.90;;;;;;5037050;28;19913;-76
2022/07/28 09:31:10;;;;;;;;;;;20.40;98.30;;;;;;5035814;28;20007;-76
2022/07/28 09:33:35;;;;;;;;;;;20.50;98.60;;;;;;5035241;28;20070;-75
2022/07/28 09:36:01;;;;;;;;;;;20.60;97.60;;;;;;5018967;28;19917;-77
2022/07/28 09:38:27;;;;;;;;;;;20.80;96.70;;;;;;5036651;28;19962;-76
2022/07/28 09:41:07;;;;;;;;;;;20.90;98.30;;;;;;5036760;28;19909;-75
2022/07/28 09:43:36;;;;;;;;;;;21.20;97.00;;;;;;5035646;28;19920;-76
2022/07/28 09:46:03;;;;;;;;;;;20.90;97.00;;;;;;5035333;28;19921;-76
2022/07/28 09:48:29;;;;;;;;;;;21.00;96.30;;;;;;5036619;28;19917;-76
2022/07/28 09:51:08;;;;;;;;;;;21.10;97.90;;;;;;5034213;28;20007;-77
2022/07/28 09:53:33;;;;;;;;;;;21.20;96.40;;;;;;5034767;28;19925;-75
2022/07/28 09:56:00;;;;;;;;;;;21.20;96.30;;;;;;5035376;28;20256;-76
2022/07/28 09:58:26;;;;;;;;;;;21.40;96.70;;;;;;5033799;28;20382;-78
2022/07/28 10:01:05;;;;;;;;;;;21.40;96.20;;;;;;5047930;28;19960;-77
2022/07/28 10:03:31;;;;;;;;;;;21.60;95.60;;;;;;5035529;28;20330;-77
2022/07/28 10:05:58;;;;;;;;;;;21.80;95.90;;;;;;5017377;28;19921;-74
2022/07/28 10:08:42;;;;;;;;;;;21.80;94.60;;;;;;5035427;28;19913;-75
2022/07/28 10:11:08;;;;;;;;;;;21.30;94.50;;;;;;5034967;28;20307;-76
2022/07/28 10:13:34;;;;;;;;;;;21.20;96.20;;;;;;5035639;28;19932;-75
2022/07/28 10:16:10;;;;;;;;;;;21.20;96.10;;;;;;5034478;28;19925;-79
2022/07/28 10:18:37;;;;;;;;;;;21.20;95.70;;;;;;5049996;28;19917;-75
2022/07/28 10:21:06;;;;;;;;;;;21.10;95.10;;;;;;5035058;28;20007;-75
2022/07/28 10:23:32;;;;;;;;;;;21.00;96.50;;;;;;5037434;28;20243;-76
2022/07/28 10:25:58;;;;;;;;;;;21.10;95.60;;;;;;5032571;28;19983;-78
2022/07/28 10:28:24;;;;;;;;;;;21.30;96.20;;;;;;5034790;28;19928;-76
2022/07/28 10:30:52;;;;;;;;;;;21.10;96.20;;;;;;5031610;28;20353;-76
2022/07/28 10:33:18;;;;;;;;;;;21.00;95.20;;;;;;5035514;28;19917;-77
2022/07/28 10:35:45;;;;;;;;;;;20.80;95.80;;;;;;5032963;28;19913;-78
2022/07/28 10:38:11;;;;;;;;;;;20.60;95.90;;;;;;5035446;28;19959;-77
2022/07/28 10:40:43;;;;;;;;;;;20.60;96.00;;;;;;5034758;28;19920;-75
2022/07/28 10:43:09;;;;;;;;;;;20.50;96.50;;;;;;5037784;28;19912;-78
2022/07/28 10:45:36;;;;;;;;;;;20.40;95.90;;;;;;5049349;28;19920;-77
2022/07/28 10:48:04;;;;;;;;;;;20.40;96.60;;;;;;5043330;28;19913;-77
2022/07/28 10:50:30;;;;;;;;;;;20.40;97.50;;;;;;5049268;28;20338;-76
2022/07/28 10:52:56;;;;;;;;;;;20.40;96.80;;;;;;5038000;28;20017;-77
2022/07/28 10:55:26;;;;;;;;;;;20.40;96.50;;;;;;5036483;28;19925;-77
2022/07/28 10:58:03;;;;;;;;;;;20.40;96.50;;;;;;5041663;28;19920;-77
2022/07/28 11:00:30;;;;;;;;;;;20.50;96.80;;;;;;5037705;28;19913;-77
2022/07/28 11:03:00;;;;;;;;;;;20.40;95.90;;;;;;5033190;28;19921;-78
2022/07/28 11:05:35;;;;;;;;;;;20.50;95.90;;;;;;5044729;28;19913;-75
2022/07/28 11:08:15;;;;;;;;;;;20.60;96.90;;;;;;5029028;28;19917;-77
2022/07/28 11:10:48;;;;;;;;;;;20.80;96.40;;;;;;5028440;28;19921;-76
2022/07/28 11:13:28;;;;;;;;;;;20.90;95.70;;;;;;5013164;28;19929;-76
2022/07/28 11:15:54;;;;;;;;;;;20.80;95.70;;;;;;5030944;28;19971;-79
2022/07/28 11:18:20;;;;;;;;;;;21.00;95.70;;;;;;5028866;28;19921;-75
2022/07/28 11:20:52;;;;;;;;;;;21.20;95.30;;;;;;5029372;28;20347;-77
2022/07/28 11:23:36;;;;;;;;;;;21.20;96.00;;;;;;5031205;28;19944;-76
2022/07/28 11:26:23;;;;;;;;;;;21.40;96.10;;;;;;5031976;28;20323;-79
2022/07/28 11:29:10;;;;;;;;;;;21.80;95.70;;;;;;5029628;28;19937;-77
2022/07/28 11:31:47;;;;;;;;;;;21.90;93.60;;;;;;5029449;28;20008;-74
2022/07/28 11:34:13;;;;;;;;;;;22.00;94.00;;;;;;5044285;28;19921;-80
2022/07/28 11:36:58;;;;;;;;;;;21.70;94.20;;;;;;5030769;28;19936;-81
2022/07/28 11:39:25;;;;;;;;;;;21.60;93.70;;;;;;5029179;28;19952;-78
2022/07/28 11:41:51;;;;;;;;;;;21.50;94.70;;;;;;5030585;28;20015;-76
2022/07/28 11:44:24;;;;;;;;;;;21.80;94.70;;;;;;5028702;28;20000;-76
2022/07/28 11:46:50;;;;;;;;;;;22.00;93.90;;;;;;5030281;28;19924;-76
2022/07/28 11:49:16;;;;;;;;;;;22.20;93.60;;;;;;5030759;28;19917;-75
2022/07/28 11:52:05;;;;;;;;;;;22.40;93.40;;;;;;5031621;28;19968;-77
2022/07/28 11:54:30;;;;;;;;;;;22.40;92.70;;;;;;5029960;28;20396;-77
2022/07/28 11:56:57;;;;;;;;;;;22.60;94.10;;;;;;5029176;28;20011;-76
2022/07/28 11:59:23;;;;;;;;;;;22.70;92.70;;;;;;5032056;28;19952;-77
2022/07/28 12:01:52;;;;;;;;;;;22.70;93.30;;;;;;5031656;28;19954;-75
2022/07/28 12:04:18;;;;;;;;;;;22.70;92.90;;;;;;5030112;28;20319;-77
2022/07/28 12:06:48;;;;;;;;;;;22.70;92.30;;;;;;5030121;28;19932;-77
2022/07/28 12:09:15;;;;;;;;;;;22.60;93.80;;;;;;5026129;28;19925;-76
2022/07/28 12:11:41;;;;;;;;;;;22.80;92.90;;;;;;5033168;28;20013;-75
2022/07/28 12:14:10;;;;;;;;;;;23.00;92.40;;;;;;5030203;28;19964;-77
2022/07/28 12:16:36;;;;;;;;;;;23.00;92.50;;;;;;5025749;28;19925;-75
2022/07/28 12:19:03;;;;;;;;;;;23.10;93.40;;;;;;5024838;28;19924;-77
2022/07/28 12:21:34;;;;;;;;;;;23.10;92.00;;;;;;5026858;28;19917;-83
2022/07/28 12:24:00;;;;;;;;;;;23.00;92.90;;;;;;5046845;28;19955;-75
2022/07/28 12:26:29;;;;;;;;;;;22.90;91.50;;;;;;5044297;28;19952;-77
2022/07/28 12:28:55;;;;;;;;;;;22.90;93.50;;;;;;5044520;28;20007;-77
2022/07/28 12:31:24;;;;;;;;;;;23.10;92.80;;;;;;5046037;28;20020;-75
2022/07/28 12:33:51;;;;;;;;;;;23.10;91.90;;;;;;5031515;28;19924;-78
2022/07/28 12:36:18;;;;;;;;;;;23.30;92.80;;;;;;5033068;28;19966;-77
2022/07/28 12:38:44;;;;;;;;;;;23.30;91.50;;;;;;5031707;28;19917;-78
2022/07/28 12:41:14;;;;;;;;;;;23.10;92.10;;;;;;5048827;28;19925;-76
2022/07/28 12:43:47;;;;;;;;;;;22.80;93.20;;;;;;5034678;28;20555;-76
2022/07/28 12:46:19;;;;;;;;;;;22.50;92.10;;;;;;5035208;28;19920;-77
2022/07/28 12:48:47;;;;;;;;;;;22.40;93.70;;;;;;5036057;28;19920;-78
2022/07/28 12:51:32;;;;;;;;;;;22.30;93.00;;;;;;5036284;28;19913;-78
2022/07/28 12:53:58;;;;;;;;;;;22.30;93.80;;;;;;5034482;28;19925;-78
2022/07/28 12:56:25;;;;;;;;;;;22.50;94.90;;;;;;5036593;28;19924;-78
2022/07/28 12:59:12;;;;;;;;;;;22.70;93.90;;;;;;5036775;28;20236;-79
2022/07/28 13:01:46;;;;;;;;;;;23.00;92.70;;;;;;5042312;28;20500;-76
2022/07/28 13:04:12;;;;;;;;;;;23.20;93.40;;;;;;5037318;28;19916;-78
2022/07/28 13:06:37;;;;;;;;;;;23.30;93.20;;;;;;5037215;28;19917;-75
2022/07/28 13:09:03;;;;;;;;;;;23.40;93.10;;;;;;5036584;28;20391;-78
2022/07/28 13:11:29;;;;;;;;;;;23.60;92.70;;;;;;5034760;28;19917;-76
2022/07/28 13:13:55;;;;;;;;;;;23.80;92.60;;;;;;5034945;28;20236;-76
2022/07/28 13:16:22;;;;;;;;;;;24.00;91.80;;;;;;5034582;28;19921;-76
2022/07/28 13:18:50;;;;;;;;;;;24.00;92.40;;;;;;5035101;28;19936;-77
2022/07/28 13:21:34;;;;;;;;;;;24.10;92.10;;;;;;5036693;28;19975;-79
2022/07/28 13:24:00;;;;;;;;;;;24.10;92.00;;;;;;5036589;28;20395;-78
2022/07/28 13:26:25;;;;;;;;;;;24.10;92.00;;;;;;5036683;28;19913;-76
2022/07/28 13:28:58;;;;;;;;;;;24.20;91.00;;;;;;5035448;28;20000;-79
2022/07/28 13:31:23;;;;;;;;;;;23.90;91.40;;;;;;5034964;28;20044;-77
2022/07/28 13:33:49;;;;;;;;;;;23.60;92.80;;;;;;5036911;28;19936;-77
2022/07/28 13:36:14;;;;;;;;;;;23.80;92.60;;;;;;5033714;28;19924;-76
2022/07/28 13:38:40;;;;;;;;;;;23.70;91.30;;;;;;5036505;28;19920;-78
2022/07/28 13:41:05;;;;;;;;;;;23.90;92.20;;;;;;5033127;28;19924;-76
2022/07/28 13:43:31;;;;;;;;;;;24.20;93.00;;;;;;5036874;28;20338;-78
2022/07/28 13:45:57;;;;;;;;;;;24.40;93.00;;;;;;5035304;28;19913;-78
2022/07/28 13:48:22;;;;;;;;;;;24.30;91.70;;;;;;5035303;28;20301;-77
2022/07/28 13:50:48;;;;;;;;;;;24.10;91.30;;;;;;5035553;28;19948;-77
2022/07/28 13:53:13;;;;;;;;;;;24.00;92.40;;;;;;5047965;28;19921;-77
2022/07/28 13:55:39;;;;;;;;;;;24.00;91.60;;;;;;5028892;28;19920;-78
2022/07/28 13:58:04;;;;;;;;;;;24.30;92.70;;;;;;5034828;28;19913;-78
2022/07/28 14:00:30;;;;;;;;;;;24.50;91.30;;;;;;5038605;28;20331;-77
2022/07/28 14:02:55;;;;;;;;;;;24.70;92.30;;;;;;5042964;28;20263;-77
2022/07/28 14:05:21;;;;;;;;;;;24.90;92.00;;;;;;5019513;28;19921;-76
2022/07/28 14:07:48;;;;;;;;;;;24.70;92.00;;;;;;5023344;28;19920;-77
2022/07/28 14:10:13;;;;;;;;;;;24.50;90.50;;;;;;5034363;28;20320;-76
2022/07/28 14:12:39;;;;;;;;;;;24.10;92.00;;;;;;5015022;28;19913;-75
2022/07/28 14:15:05;;;;;;;;;;;23.70;91.30;;;;;;5021038;28;19918;-75
2022/07/28 14:17:31;;;;;;;;;;;23.40;92.60;;;;;;5019010;28;20007;-80
2022/07/28 14:19:57;;;;;;;;;;;23.10;92.40;;;;;;5029127;28;20016;-76
2022/07/28 14:22:22;;;;;;;;;;;23.00;92.90;;;;;;5020272;28;19917;-79
2022/07/28 14:24:48;;;;;;;;;;;22.90;92.60;;;;;;5033521;28;20224;-78